createdAt,value
2018-12-29T00:00:21.425Z,6.16
2018-12-29T00:01:21.405Z,6.21
2018-12-29T00:02:21.376Z,6.13
2018-12-29T00:03:21.353Z,6.16
2018-12-29T00:04:21.325Z,6.13
2018-12-29T00:05:21.301Z,6.18
2018-12-29T00:06:21.274Z,6.18
2018-12-29T00:07:21.250Z,6.09
2018-12-29T00:08:21.223Z,6.13
2018-12-29T00:09:21.249Z,6.13
2018-12-29T00:10:21.173Z,6.19
2018-12-29T00:11:21.150Z,6.13
2018-12-29T00:12:21.121Z,6.16
2018-12-29T00:13:21.101Z,6.11
2018-12-29T00:14:21.073Z,6.11
2018-12-29T00:15:21.047Z,6.25
2018-12-29T00:16:21.021Z,6.12
2018-12-29T00:17:20.996Z,6.05
2018-12-29T00:18:20.970Z,6.15
2018-12-29T00:19:20.946Z,6.13
2018-12-29T00:20:20.920Z,6.15
2018-12-29T00:21:20.896Z,6.16
2018-12-29T00:22:20.869Z,6.16
2018-12-29T00:23:20.844Z,6.06
2018-12-29T00:24:20.819Z,6.18
2018-12-29T00:25:20.793Z,6.13
2018-12-29T00:26:20.768Z,6.11
2018-12-29T00:27:20.743Z,6.13
2018-12-29T00:28:20.716Z,6.15
2018-12-29T00:29:20.691Z,6.15
2018-12-29T00:30:20.666Z,6.12
2018-12-29T00:31:20.642Z,6.12
2018-12-29T00:32:20.614Z,6.13
2018-12-29T00:33:20.592Z,6.12
2018-12-29T00:34:20.564Z,6.09
2018-12-29T00:35:20.539Z,6.11
2018-12-29T00:36:20.516Z,6.16
2018-12-29T00:37:20.488Z,6.12
2018-12-29T00:38:20.465Z,6.13
2018-12-29T00:39:20.438Z,6.09
2018-12-29T00:40:20.412Z,6.12
2018-12-29T00:41:20.386Z,6.15
2018-12-29T00:42:20.361Z,6.13
2018-12-29T00:43:20.338Z,6.16
2018-12-29T00:44:20.312Z,6.12
2018-12-29T00:45:20.286Z,6.15
2018-12-29T00:46:20.260Z,6.15
2018-12-29T00:47:20.238Z,6.15
2018-12-29T00:48:20.214Z,6.09
2018-12-29T00:49:20.185Z,6.13
2018-12-29T00:50:20.158Z,6.08
2018-12-29T00:51:20.135Z,6.13
2018-12-29T00:52:20.108Z,6.12
2018-12-29T00:53:20.084Z,6.15
2018-12-29T00:54:20.059Z,6.11
2018-12-29T00:55:20.034Z,6.12
2018-12-29T00:56:20.007Z,6.15
2018-12-29T00:57:19.983Z,6.12
2018-12-29T00:58:19.957Z,6.09
2018-12-29T00:59:19.932Z,6.12
2018-12-29T01:00:19.905Z,6.13
2018-12-29T01:01:19.882Z,6.11
2018-12-29T01:02:19.855Z,6.09
2018-12-29T01:03:19.833Z,6.13
2018-12-29T01:04:19.806Z,6.05
2018-12-29T01:05:19.781Z,6.19
2018-12-29T01:06:19.754Z,6.11
2018-12-29T01:07:19.740Z,6.15
2018-12-29T01:08:19.703Z,6.06
2018-12-29T01:09:19.678Z,6.16
2018-12-29T01:10:19.653Z,6.11
2018-12-29T01:11:19.632Z,6.13
2018-12-29T01:12:19.604Z,6.13
2018-12-29T01:13:19.578Z,6.12
2018-12-29T01:14:19.553Z,6.12
2018-12-29T01:15:19.529Z,6.12
2018-12-29T01:16:19.503Z,6.16
2018-12-29T01:17:19.476Z,6.15
2018-12-29T01:18:19.451Z,6.16
2018-12-29T01:19:19.426Z,6.09
2018-12-29T01:20:19.400Z,6.11
2018-12-29T01:21:19.375Z,6.13
2018-12-29T01:22:19.350Z,6.15
2018-12-29T01:23:19.326Z,6.12
2018-12-29T01:24:19.300Z,6.13
2018-12-29T01:25:19.274Z,6.06
2018-12-29T01:26:19.251Z,6.09
2018-12-29T01:27:19.226Z,6.18
2018-12-29T01:28:20.545Z,6.15
2018-12-29T01:29:19.174Z,6.13
2018-12-29T01:30:19.147Z,6.13
2018-12-29T01:31:19.123Z,6.18
2018-12-29T01:32:19.097Z,6.12
2018-12-29T01:33:19.071Z,6.16
2018-12-29T01:34:19.049Z,6.12
2018-12-29T01:35:19.022Z,6.13
2018-12-29T01:36:18.996Z,6.15
2018-12-29T01:37:18.971Z,6.18
2018-12-29T01:38:18.948Z,6.16
2018-12-29T01:39:18.920Z,6.18
2018-12-29T01:40:18.896Z,6.11
2018-12-29T01:41:18.870Z,6.12
2018-12-29T01:42:18.843Z,6.11
2018-12-29T01:43:18.819Z,6.18
2018-12-29T01:44:18.792Z,6.18
2018-12-29T01:45:18.767Z,6.18
2018-12-29T01:46:18.743Z,6.12
2018-12-29T01:47:18.716Z,6.09
2018-12-29T01:48:18.691Z,6.15
2018-12-29T01:49:18.671Z,6.18
2018-12-29T01:50:18.641Z,6.15
2018-12-29T01:51:18.617Z,6.12
2018-12-29T01:52:18.593Z,6.19
2018-12-29T01:53:18.564Z,6.13
2018-12-29T01:54:18.541Z,6.18
2018-12-29T01:55:18.516Z,6.11
2018-12-29T01:56:18.488Z,6.06
2018-12-29T01:57:18.463Z,6.13
2018-12-29T01:58:18.438Z,6.15
2018-12-29T01:59:18.414Z,6.06
2018-12-29T02:00:18.387Z,6.12
2018-12-29T02:01:18.367Z,6.11
2018-12-29T02:02:18.338Z,6.21
2018-12-29T02:03:18.311Z,6.05
2018-12-29T02:04:18.286Z,6.16
2018-12-29T02:05:18.260Z,6.13
2018-12-29T02:06:18.235Z,6.12
2018-12-29T02:07:18.210Z,6.18
2018-12-29T02:08:18.185Z,6.12
2018-12-29T02:09:18.159Z,6.18
2018-12-29T02:10:18.135Z,6.15
2018-12-29T02:11:18.110Z,6.24
2018-12-29T02:12:18.085Z,6.12
2018-12-29T02:13:18.058Z,6.16
2018-12-29T02:14:18.034Z,6.18
2018-12-29T02:15:24.556Z,6.18
2018-12-29T02:16:17.983Z,6.16
2018-12-29T02:17:17.961Z,6.24
2018-12-29T02:18:17.932Z,6.13
2018-12-29T02:19:17.906Z,6.21
2018-12-29T02:20:17.881Z,6.11
2018-12-29T02:21:17.855Z,6.18
2018-12-29T02:22:17.830Z,6.13
2018-12-29T02:23:17.807Z,6.15
2018-12-29T02:24:17.780Z,6.18
2018-12-29T02:25:17.755Z,6.12
2018-12-29T02:26:17.729Z,6.16
2018-12-29T02:27:17.706Z,6.12
2018-12-29T02:28:17.678Z,6.18
2018-12-29T02:29:17.653Z,6.18
2018-12-29T02:30:17.629Z,6.13
2018-12-29T02:31:17.604Z,6.19
2018-12-29T02:32:17.578Z,6.13
2018-12-29T02:33:17.551Z,6.28
2018-12-29T02:34:17.527Z,6.16
2018-12-29T02:35:17.501Z,6.19
2018-12-29T02:36:17.478Z,6.15
2018-12-29T02:37:17.452Z,6.13
2018-12-29T02:38:17.426Z,6.16
2018-12-29T02:39:17.401Z,6.13
2018-12-29T02:40:17.374Z,6.15
2018-12-29T02:41:17.350Z,6.18
2018-12-29T02:42:17.325Z,6.21
2018-12-29T02:43:17.301Z,6.21
2018-12-29T02:44:17.274Z,6.18
2018-12-29T02:45:17.248Z,6.16
2018-12-29T02:46:17.223Z,6.21
2018-12-29T02:47:17.199Z,6.21
2018-12-29T02:48:17.176Z,6.24
2018-12-29T02:49:17.148Z,6.24
2018-12-29T02:50:17.122Z,6.28
2018-12-29T02:51:17.097Z,6.28
2018-12-29T02:52:17.072Z,6.19
2018-12-29T02:53:17.047Z,6.27
2018-12-29T02:54:17.021Z,6.19
2018-12-29T02:55:16.998Z,6.19
2018-12-29T02:56:16.976Z,6.18
2018-12-29T02:57:16.947Z,6.24
2018-12-29T02:58:16.922Z,6.27
2018-12-29T02:59:16.896Z,6.18
2018-12-29T03:00:16.871Z,6.18
2018-12-29T03:01:16.846Z,6.24
2018-12-29T03:02:16.820Z,6.25
2018-12-29T03:03:16.796Z,6.25
2018-12-29T03:04:16.772Z,6.28
2018-12-29T03:05:16.746Z,6.30
2018-12-29T03:06:16.722Z,6.19
2018-12-29T03:07:16.695Z,6.32
2018-12-29T03:08:16.669Z,6.21
2018-12-29T03:09:16.644Z,6.24
2018-12-29T03:10:16.620Z,6.37
2018-12-29T03:11:16.595Z,6.25
2018-12-29T03:12:16.568Z,6.35
2018-12-29T03:13:16.544Z,6.18
2018-12-29T03:14:16.518Z,6.35
2018-12-29T03:15:16.495Z,6.19
2018-12-29T03:16:16.468Z,6.25
2018-12-29T03:17:16.450Z,6.30
2018-12-29T03:18:16.422Z,6.28
2018-12-29T03:19:16.393Z,6.34
2018-12-29T03:20:16.370Z,6.34
2018-12-29T03:21:16.346Z,6.37
2018-12-29T03:22:16.318Z,6.34
2018-12-29T03:23:16.295Z,6.27
2018-12-29T03:24:16.269Z,6.35
2018-12-29T03:25:16.311Z,6.40
2018-12-29T03:26:16.219Z,6.47
2018-12-29T03:27:16.193Z,6.45
2018-12-29T03:28:16.168Z,6.45
2018-12-29T03:29:16.141Z,6.46
2018-12-29T03:30:16.118Z,6.42
2018-12-29T03:31:16.094Z,6.43
2018-12-29T03:32:16.068Z,6.43
2018-12-29T03:33:16.042Z,6.38
2018-12-29T03:34:16.026Z,6.40
2018-12-29T03:35:15.993Z,6.38
2018-12-29T03:36:15.971Z,6.38
2018-12-29T03:37:15.943Z,6.43
2018-12-29T03:38:15.917Z,6.46
2018-12-29T03:39:15.893Z,6.40
2018-12-29T03:40:15.869Z,6.38
2018-12-29T03:41:15.847Z,6.47
2018-12-29T03:42:15.816Z,6.46
2018-12-29T03:43:15.792Z,6.46
2018-12-29T03:44:15.770Z,6.46
2018-12-29T03:45:15.740Z,6.49
2018-12-29T03:46:15.716Z,6.42
2018-12-29T03:47:15.691Z,6.42
2018-12-29T03:48:15.665Z,6.43
2018-12-29T03:49:15.640Z,6.42
2018-12-29T03:50:15.653Z,6.42
2018-12-29T03:51:15.591Z,6.47
2018-12-29T03:52:15.568Z,6.52
2018-12-29T03:53:15.541Z,6.46
2018-12-29T03:54:15.517Z,6.47
2018-12-29T03:55:15.492Z,6.45
2018-12-29T03:56:15.466Z,6.47
2018-12-29T03:57:15.441Z,6.47
2018-12-29T03:58:15.416Z,6.42
2018-12-29T03:59:15.394Z,6.43
2018-12-29T04:00:15.369Z,6.42
2018-12-29T04:01:15.340Z,6.46
2018-12-29T04:02:15.316Z,6.56
2018-12-29T04:03:15.295Z,6.43
2018-12-29T04:04:15.265Z,6.47
2018-12-29T04:05:15.241Z,6.50
2018-12-29T04:06:15.216Z,6.56
2018-12-29T04:07:15.191Z,6.53
2018-12-29T04:08:15.165Z,6.56
2018-12-29T04:09:15.141Z,6.57
2018-12-29T04:10:15.120Z,6.50
2018-12-29T04:11:15.091Z,6.60
2018-12-29T04:12:15.069Z,6.49
2018-12-29T04:13:15.040Z,6.55
2018-12-29T04:14:15.014Z,6.55
2018-12-29T04:15:14.992Z,6.50
2018-12-29T04:16:14.965Z,6.49
2018-12-29T04:17:14.941Z,6.55
2018-12-29T04:18:14.915Z,6.49
2018-12-29T04:19:14.890Z,6.52
2018-12-29T04:20:14.865Z,6.60
2018-12-29T04:21:14.840Z,6.49
2018-12-29T04:22:14.825Z,6.57
2018-12-29T04:23:14.789Z,6.57
2018-12-29T04:24:14.767Z,6.63
2018-12-29T04:25:14.739Z,6.60
2018-12-29T04:26:14.717Z,6.65
2018-12-29T04:27:14.691Z,6.64
2018-12-29T04:28:14.665Z,6.56
2018-12-29T04:29:14.642Z,6.64
2018-12-29T04:30:14.615Z,6.63
2018-12-29T04:31:14.590Z,6.61
2018-12-29T04:32:14.564Z,6.63
2018-12-29T04:33:14.539Z,6.63
2018-12-29T04:34:14.516Z,6.57
2018-12-29T04:35:14.491Z,6.61
2018-12-29T04:36:14.465Z,6.57
2018-12-29T04:37:14.441Z,6.68
2018-12-29T04:38:14.414Z,6.67
2018-12-29T04:39:14.462Z,6.70
2018-12-29T04:40:14.365Z,6.68
2018-12-29T04:41:14.339Z,6.71
2018-12-29T04:42:14.315Z,6.74
2018-12-29T04:43:14.289Z,6.70
2018-12-29T04:44:14.274Z,6.73
2018-12-29T04:45:14.240Z,6.74
2018-12-29T04:46:14.215Z,6.63
2018-12-29T04:47:14.190Z,6.73
2018-12-29T04:48:14.165Z,6.78
2018-12-29T04:49:14.140Z,6.61
2018-12-29T04:50:14.116Z,6.68
2018-12-29T04:51:14.090Z,6.63
2018-12-29T04:52:14.064Z,6.67
2018-12-29T04:53:14.040Z,6.64
2018-12-29T04:54:14.015Z,6.65
2018-12-29T04:55:13.992Z,6.65
2018-12-29T04:56:13.963Z,6.64
2018-12-29T04:57:13.940Z,6.73
2018-12-29T04:58:13.914Z,6.74
2018-12-29T04:59:13.891Z,6.63
2018-12-29T05:00:13.864Z,6.73
2018-12-29T05:01:13.839Z,6.61
2018-12-29T05:02:13.814Z,6.71
2018-12-29T05:03:13.791Z,6.68
2018-12-29T05:04:13.765Z,6.61
2018-12-29T05:05:13.741Z,6.70
2018-12-29T05:06:13.714Z,6.70
2018-12-29T05:07:13.691Z,6.65
2018-12-29T05:08:13.666Z,6.57
2018-12-29T05:09:13.639Z,6.61
2018-12-29T05:10:13.615Z,6.61
2018-12-29T05:11:13.592Z,6.63
2018-12-29T05:12:13.566Z,6.57
2018-12-29T05:13:13.539Z,6.52
2018-12-29T05:14:13.515Z,6.63
2018-12-29T05:15:13.490Z,6.61
2018-12-29T05:16:13.469Z,6.64
2018-12-29T05:17:13.441Z,6.61
2018-12-29T05:18:13.415Z,6.57
2018-12-29T05:19:13.392Z,6.55
2018-12-29T05:20:13.365Z,6.63
2018-12-29T05:21:13.340Z,6.61
2018-12-29T05:22:13.315Z,6.60
2018-12-29T05:23:13.292Z,6.63
2018-12-29T05:24:13.265Z,6.56
2018-12-29T05:25:13.241Z,6.61
2018-12-29T05:26:13.214Z,6.56
2018-12-29T05:27:13.194Z,6.63
2018-12-29T05:28:13.165Z,6.60
2018-12-29T05:29:13.139Z,6.65
2018-12-29T05:30:13.116Z,6.61
2018-12-29T05:31:13.090Z,6.60
2018-12-29T05:32:13.067Z,6.57
2018-12-29T05:33:13.039Z,6.63
2018-12-29T05:34:13.015Z,6.65
2018-12-29T05:35:13.003Z,6.60
2018-12-29T05:36:12.964Z,6.60
2018-12-29T05:37:12.941Z,6.55
2018-12-29T05:38:12.916Z,6.61
2018-12-29T05:39:12.893Z,6.60
2018-12-29T05:40:12.865Z,6.60
2018-12-29T05:41:12.839Z,6.60
2018-12-29T05:42:12.814Z,6.63
2018-12-29T05:43:12.789Z,6.63
2018-12-29T05:44:12.764Z,6.63
2018-12-29T05:45:12.739Z,6.60
2018-12-29T05:46:20.115Z,6.60
2018-12-29T05:47:12.689Z,6.60
2018-12-29T05:48:12.675Z,6.57
2018-12-29T05:49:12.639Z,6.63
2018-12-29T05:50:12.614Z,6.56
2018-12-29T05:51:12.589Z,6.63
2018-12-29T05:52:12.564Z,6.57
2018-12-29T05:53:12.543Z,6.57
2018-12-29T05:54:12.515Z,6.67
2018-12-29T05:55:12.489Z,6.56
2018-12-29T05:56:12.464Z,6.57
2018-12-29T05:57:12.438Z,6.57
2018-12-29T05:58:12.413Z,6.61
2018-12-29T05:59:12.388Z,6.68
2018-12-29T06:00:12.366Z,6.61
2018-12-29T06:01:12.341Z,6.61
2018-12-29T06:02:12.313Z,6.60
2018-12-29T06:03:12.287Z,6.63
2018-12-29T06:04:12.263Z,6.63
2018-12-29T06:05:12.241Z,6.68
2018-12-29T06:06:12.213Z,6.60
2018-12-29T06:07:12.190Z,6.67
2018-12-29T06:08:12.161Z,6.57
2018-12-29T06:09:12.137Z,6.61
2018-12-29T06:10:12.111Z,6.67
2018-12-29T06:11:12.086Z,6.65
2018-12-29T06:12:12.062Z,6.61
2018-12-29T06:13:12.036Z,6.57
2018-12-29T06:14:12.012Z,6.67
2018-12-29T06:15:11.986Z,6.67
2018-12-29T06:16:11.961Z,6.55
2018-12-29T06:17:11.937Z,6.60
2018-12-29T06:18:11.912Z,6.65
2018-12-29T06:19:11.886Z,6.73
2018-12-29T06:20:11.859Z,6.65
2018-12-29T06:21:11.840Z,6.65
2018-12-29T06:22:11.809Z,6.67
2018-12-29T06:23:11.788Z,6.63
2018-12-29T06:24:11.761Z,6.65
2018-12-29T06:25:11.754Z,6.63
2018-12-29T06:26:11.775Z,6.73
2018-12-29T06:27:11.684Z,6.60
2018-12-29T06:28:11.660Z,6.78
2018-12-29T06:29:11.635Z,6.71
2018-12-29T06:30:11.611Z,6.65
2018-12-29T06:31:11.584Z,6.70
2018-12-29T06:32:11.560Z,6.74
2018-12-29T06:33:11.533Z,6.65
2018-12-29T06:34:11.511Z,6.70
2018-12-29T06:35:11.484Z,6.65
2018-12-29T06:36:11.480Z,6.60
2018-12-29T06:37:11.434Z,6.65
2018-12-29T06:38:11.409Z,6.65
2018-12-29T06:39:11.384Z,6.65
2018-12-29T06:40:11.359Z,6.63
2018-12-29T06:41:11.334Z,6.64
2018-12-29T06:42:11.309Z,6.63
2018-12-29T06:43:11.287Z,6.63
2018-12-29T06:44:11.258Z,6.65
2018-12-29T06:45:11.233Z,6.65
2018-12-29T06:46:11.209Z,6.68
2018-12-29T06:47:11.183Z,6.65
2018-12-29T06:48:11.158Z,6.67
2018-12-29T06:49:11.132Z,6.70
2018-12-29T06:50:11.108Z,6.71
2018-12-29T06:51:11.084Z,6.70
2018-12-29T06:52:11.057Z,6.68
2018-12-29T06:53:11.032Z,6.71
2018-12-29T06:54:11.008Z,6.56
2018-12-29T06:55:10.983Z,6.70
2018-12-29T06:56:10.959Z,6.73
2018-12-29T06:57:10.933Z,6.79
2018-12-29T06:58:10.908Z,6.78
2018-12-29T06:59:10.883Z,6.81
2018-12-29T07:00:10.858Z,6.75
2018-12-29T07:01:10.831Z,6.70
2018-12-29T07:02:10.808Z,6.75
2018-12-29T07:03:10.784Z,6.71
2018-12-29T07:04:10.758Z,6.74
2018-12-29T07:05:10.732Z,6.74
2018-12-29T07:06:10.707Z,6.71
2018-12-29T07:07:10.682Z,6.73
2018-12-29T07:08:10.655Z,6.70
2018-12-29T07:09:10.632Z,6.82
2018-12-29T07:10:10.607Z,6.71
2018-12-29T07:11:10.584Z,6.75
2018-12-29T07:12:10.557Z,6.71
2018-12-29T07:13:10.532Z,6.79
2018-12-29T07:14:10.506Z,6.74
2018-12-29T07:15:10.482Z,6.73
2018-12-29T07:16:10.459Z,6.82
2018-12-29T07:17:10.432Z,6.81
2018-12-29T07:18:10.406Z,6.78
2018-12-29T07:19:10.381Z,6.81
2018-12-29T07:20:10.355Z,6.73
2018-12-29T07:21:10.331Z,6.79
2018-12-29T07:22:10.306Z,6.86
2018-12-29T07:23:10.281Z,6.83
2018-12-29T07:24:10.263Z,6.83
2018-12-29T07:25:10.231Z,6.75
2018-12-29T07:26:10.206Z,6.79
2018-12-29T07:27:10.182Z,6.79
2018-12-29T07:28:10.155Z,6.82
2018-12-29T07:29:10.131Z,6.82
2018-12-29T07:30:10.155Z,6.86
2018-12-29T07:31:10.081Z,6.83
2018-12-29T07:32:10.055Z,6.79
2018-12-29T07:33:10.031Z,6.83
2018-12-29T07:34:10.008Z,6.85
2018-12-29T07:35:09.983Z,6.82
2018-12-29T07:36:09.957Z,6.81
2018-12-29T07:37:09.931Z,6.85
2018-12-29T07:38:09.906Z,6.88
2018-12-29T07:39:09.885Z,6.89
2018-12-29T07:40:09.856Z,6.91
2018-12-29T07:41:09.832Z,6.97
2018-12-29T07:42:09.807Z,6.96
2018-12-29T07:43:09.782Z,6.92
2018-12-29T07:44:09.758Z,6.93
2018-12-29T07:45:09.735Z,6.86
2018-12-29T07:46:09.709Z,6.91
2018-12-29T07:47:09.683Z,6.93
2018-12-29T07:48:09.657Z,6.91
2018-12-29T07:49:09.635Z,6.89
2018-12-29T07:50:09.608Z,6.89
2018-12-29T07:51:09.583Z,6.96
2018-12-29T07:52:09.557Z,6.88
2018-12-29T07:53:09.532Z,6.91
2018-12-29T07:54:09.508Z,6.91
2018-12-29T07:55:09.484Z,6.93
2018-12-29T07:56:09.458Z,6.89
2018-12-29T07:57:09.433Z,6.92
2018-12-29T07:58:09.410Z,6.96
2018-12-29T07:59:09.384Z,6.91
2018-12-29T08:00:09.360Z,6.89
2018-12-29T08:01:09.335Z,6.92
2018-12-29T08:02:09.311Z,6.99
2018-12-29T08:03:09.286Z,6.99
2018-12-29T08:04:09.260Z,6.96
2018-12-29T08:05:09.235Z,7.00
2018-12-29T08:06:09.210Z,7.03
2018-12-29T08:07:09.186Z,7.04
2018-12-29T08:08:09.159Z,7.06
2018-12-29T08:09:09.136Z,7.06
2018-12-29T08:10:09.111Z,7.07
2018-12-29T08:11:09.088Z,7.04
2018-12-29T08:12:09.060Z,7.04
2018-12-29T08:13:09.038Z,7.03
2018-12-29T08:14:09.014Z,7.03
2018-12-29T08:15:08.987Z,7.04
2018-12-29T08:16:08.962Z,7.11
2018-12-29T08:17:08.938Z,7.10
2018-12-29T08:18:08.914Z,7.15
2018-12-29T08:19:08.891Z,7.11
2018-12-29T08:20:08.864Z,7.13
2018-12-29T08:21:08.840Z,7.13
2018-12-29T08:22:08.815Z,7.11
2018-12-29T08:23:08.790Z,7.16
2018-12-29T08:24:08.765Z,7.16
2018-12-29T08:25:08.742Z,7.08
2018-12-29T08:26:08.720Z,7.11
2018-12-29T08:27:08.692Z,7.21
2018-12-29T08:28:08.667Z,7.10
2018-12-29T08:29:08.643Z,7.16
2018-12-29T08:30:08.620Z,7.19
2018-12-29T08:31:08.595Z,7.26
2018-12-29T08:32:08.569Z,7.21
2018-12-29T08:33:08.546Z,7.31
2018-12-29T08:34:08.521Z,7.29
2018-12-29T08:35:08.497Z,7.29
2018-12-29T08:36:08.470Z,7.24
2018-12-29T08:37:08.448Z,7.28
2018-12-29T08:38:08.424Z,7.26
2018-12-29T08:39:08.401Z,7.34
2018-12-29T08:40:08.375Z,7.25
2018-12-29T08:41:08.349Z,7.25
2018-12-29T08:42:08.326Z,7.29
2018-12-29T08:43:08.302Z,7.25
2018-12-29T08:44:08.277Z,7.34
2018-12-29T08:45:08.252Z,7.26
2018-12-29T08:46:08.229Z,7.37
2018-12-29T08:47:08.206Z,7.29
2018-12-29T08:48:08.181Z,7.33
2018-12-29T08:49:08.157Z,7.34
2018-12-29T08:50:13.061Z,7.29
2018-12-29T08:51:08.108Z,7.42
2018-12-29T08:52:08.083Z,7.43
2018-12-29T08:53:08.138Z,7.36
2018-12-29T08:54:08.036Z,7.40
2018-12-29T08:55:08.012Z,7.29
2018-12-29T08:56:07.991Z,7.36
2018-12-29T08:57:07.962Z,7.39
2018-12-29T08:58:07.939Z,7.34
2018-12-29T08:59:07.916Z,7.34
2018-12-29T09:00:07.891Z,7.34
2018-12-29T09:01:07.871Z,7.39
2018-12-29T09:02:07.843Z,7.39
2018-12-29T09:03:07.819Z,7.39
2018-12-29T09:04:07.795Z,7.34
2018-12-29T09:05:07.770Z,7.39
2018-12-29T09:06:07.746Z,7.36
2018-12-29T09:07:07.723Z,7.39
2018-12-29T09:08:07.699Z,7.40
2018-12-29T09:09:07.674Z,7.43
2018-12-29T09:10:07.651Z,7.39
2018-12-29T09:11:07.627Z,7.37
2018-12-29T09:12:07.602Z,7.43
2018-12-29T09:13:07.577Z,7.36
2018-12-29T09:14:07.553Z,7.43
2018-12-29T09:15:07.530Z,7.40
2018-12-29T09:16:07.505Z,7.36
2018-12-29T09:17:12.063Z,7.44
2018-12-29T09:18:07.459Z,7.36
2018-12-29T09:19:07.433Z,7.44
2018-12-29T09:20:07.409Z,7.40
2018-12-29T09:21:07.384Z,7.40
2018-12-29T09:22:07.360Z,7.39
2018-12-29T09:23:07.336Z,7.40
2018-12-29T09:24:07.311Z,7.42
2018-12-29T09:25:07.288Z,7.43
2018-12-29T09:26:07.264Z,7.40
2018-12-29T09:27:07.240Z,7.46
2018-12-29T09:28:07.216Z,7.55
2018-12-29T09:29:07.195Z,7.47
2018-12-29T09:30:07.169Z,7.54
2018-12-29T09:31:07.171Z,7.40
2018-12-29T09:32:07.119Z,7.34
2018-12-29T09:33:07.095Z,7.39
2018-12-29T09:34:07.071Z,7.42
2018-12-29T09:35:07.047Z,7.55
2018-12-29T09:36:07.025Z,7.50
2018-12-29T09:37:06.998Z,7.60
2018-12-29T09:38:06.977Z,7.58
2018-12-29T09:39:06.950Z,7.49
2018-12-29T09:40:06.925Z,7.54
2018-12-29T09:41:06.973Z,7.50
2018-12-29T09:42:06.882Z,7.54
2018-12-29T09:43:06.858Z,7.55
2018-12-29T09:44:06.830Z,7.55
2018-12-29T09:45:06.806Z,7.55
2018-12-29T09:46:06.783Z,7.58
2018-12-29T09:47:06.758Z,7.55
2018-12-29T09:48:06.736Z,7.58
2018-12-29T09:49:06.711Z,7.64
2018-12-29T09:50:06.687Z,7.62
2018-12-29T09:51:06.663Z,7.55
2018-12-29T09:52:06.639Z,7.64
2018-12-29T09:53:06.614Z,7.61
2018-12-29T09:54:06.590Z,7.61
2018-12-29T09:55:06.566Z,7.57
2018-12-29T09:56:06.543Z,7.68
2018-12-29T09:57:06.520Z,7.66
2018-12-29T09:58:06.496Z,7.61
2018-12-29T09:59:06.471Z,7.62
2018-12-29T10:00:06.448Z,7.68
2018-12-29T10:01:06.424Z,7.69
2018-12-29T10:02:06.399Z,7.74
2018-12-29T10:03:06.376Z,7.68
2018-12-29T10:04:06.352Z,7.71
2018-12-29T10:05:06.327Z,7.68
2018-12-29T10:06:06.304Z,7.69
2018-12-29T10:07:06.281Z,7.74
2018-12-29T10:08:06.256Z,7.71
2018-12-29T10:09:06.232Z,7.66
2018-12-29T10:10:06.208Z,7.68
2018-12-29T10:11:06.186Z,7.66
2018-12-29T10:12:06.161Z,7.54
2018-12-29T10:13:06.137Z,7.58
2018-12-29T10:14:06.115Z,7.57
2018-12-29T10:15:06.091Z,7.55
2018-12-29T10:16:06.066Z,7.52
2018-12-29T10:17:06.047Z,7.62
2018-12-29T10:18:06.018Z,7.71
2018-12-29T10:19:05.995Z,7.68
2018-12-29T10:20:05.971Z,7.73
2018-12-29T10:21:05.946Z,7.73
2018-12-29T10:22:05.924Z,7.66
2018-12-29T10:23:05.899Z,7.68
2018-12-29T10:24:05.878Z,7.69
2018-12-29T10:25:05.852Z,7.78
2018-12-29T10:26:05.828Z,7.74
2018-12-29T10:27:05.806Z,7.81
2018-12-29T10:28:05.779Z,7.80
2018-12-29T10:29:05.757Z,7.73
2018-12-29T10:30:05.733Z,7.81
2018-12-29T10:31:05.714Z,7.81
2018-12-29T10:32:05.685Z,7.76
2018-12-29T10:33:05.662Z,7.69
2018-12-29T10:34:05.645Z,7.73
2018-12-29T10:35:05.615Z,7.69
2018-12-29T10:36:05.591Z,7.74
2018-12-29T10:37:05.566Z,7.77
2018-12-29T10:38:05.543Z,7.73
2018-12-29T10:39:05.520Z,7.68
2018-12-29T10:40:05.495Z,7.66
2018-12-29T10:41:05.472Z,7.71
2018-12-29T10:42:05.449Z,7.69
2018-12-29T10:43:05.424Z,7.77
2018-12-29T10:44:05.401Z,7.68
2018-12-29T10:45:05.380Z,7.71
2018-12-29T10:46:05.353Z,7.69
2018-12-29T10:47:05.331Z,7.66
2018-12-29T10:48:05.308Z,7.68
2018-12-29T10:49:05.283Z,7.68
2018-12-29T10:50:05.259Z,7.77
2018-12-29T10:51:05.235Z,7.69
2018-12-29T10:52:05.211Z,7.74
2018-12-29T10:53:05.188Z,7.80
2018-12-29T10:54:05.165Z,7.86
2018-12-29T10:55:05.140Z,7.86
2018-12-29T10:56:05.116Z,7.84
2018-12-29T10:57:05.112Z,7.81
2018-12-29T10:58:05.070Z,7.81
2018-12-29T10:59:05.047Z,7.76
2018-12-29T11:00:05.023Z,7.80
2018-12-29T11:01:05.000Z,7.86
2018-12-29T11:02:04.983Z,7.80
2018-12-29T11:03:04.952Z,7.80
2018-12-29T11:04:04.935Z,7.83
2018-12-29T11:05:04.908Z,7.87
2018-12-29T11:06:04.882Z,7.76
2018-12-29T11:07:04.859Z,7.83
2018-12-29T11:08:04.835Z,7.80
2018-12-29T11:09:04.823Z,7.88
2018-12-29T11:10:04.788Z,7.92
2018-12-29T11:11:04.766Z,7.92
2018-12-29T11:12:04.742Z,7.86
2018-12-29T11:13:04.718Z,7.92
2018-12-29T11:14:04.699Z,7.81
2018-12-29T11:15:04.673Z,7.87
2018-12-29T11:16:04.649Z,7.92
2018-12-29T11:17:04.626Z,7.88
2018-12-29T11:18:04.602Z,7.80
2018-12-29T11:19:04.579Z,7.80
2018-12-29T11:20:04.555Z,7.81
2018-12-29T11:21:04.532Z,7.84
2018-12-29T11:22:04.509Z,7.83
2018-12-29T11:23:04.486Z,7.78
2018-12-29T11:24:04.463Z,7.80
2018-12-29T11:25:04.441Z,7.88
2018-12-29T11:26:04.416Z,7.87
2018-12-29T11:27:04.393Z,7.83
2018-12-29T11:28:04.369Z,7.88
2018-12-29T11:29:04.346Z,7.80
2018-12-29T11:30:04.322Z,7.81
2018-12-29T11:31:04.302Z,7.88
2018-12-29T11:32:04.280Z,7.86
2018-12-29T11:33:04.253Z,7.88
2018-12-29T11:34:04.229Z,7.88
2018-12-29T11:35:04.206Z,7.86
2018-12-29T11:36:04.182Z,7.84
2018-12-29T11:37:04.158Z,7.92
2018-12-29T11:38:04.135Z,7.83
2018-12-29T11:39:04.114Z,7.92
2018-12-29T11:40:04.088Z,7.95
2018-12-29T11:41:04.064Z,7.94
2018-12-29T11:42:04.043Z,7.88
2018-12-29T11:43:04.018Z,7.91
2018-12-29T11:44:03.994Z,8.04
2018-12-29T11:45:03.972Z,7.95
2018-12-29T11:46:03.948Z,7.96
2018-12-29T11:47:03.924Z,8.01
2018-12-29T11:48:03.901Z,8.01
2018-12-29T11:49:03.879Z,8.02
2018-12-29T11:50:03.856Z,8.01
2018-12-29T11:51:03.831Z,8.05
2018-12-29T11:52:03.807Z,8.06
2018-12-29T11:53:03.784Z,8.10
2018-12-29T11:54:03.762Z,8.09
2018-12-29T11:55:03.737Z,8.13
2018-12-29T11:56:03.715Z,8.12
2018-12-29T11:57:03.692Z,8.12
2018-12-29T11:58:03.667Z,8.16
2018-12-29T11:59:03.646Z,8.24
2018-12-29T12:00:03.621Z,8.16
2018-12-29T12:01:03.597Z,8.13
2018-12-29T12:02:03.575Z,8.13
2018-12-29T12:03:03.551Z,8.16
2018-12-29T12:04:03.531Z,8.12
2018-12-29T12:05:03.506Z,8.16
2018-12-29T12:06:03.481Z,8.13
2018-12-29T12:07:03.458Z,8.12
2018-12-29T12:08:03.434Z,8.12
2018-12-29T12:09:03.413Z,8.17
2018-12-29T12:10:03.389Z,8.19
2018-12-29T12:11:03.366Z,8.14
2018-12-29T12:12:03.345Z,8.12
2018-12-29T12:13:03.321Z,8.14
2018-12-29T12:14:03.298Z,8.19
2018-12-29T12:15:03.277Z,8.21
2018-12-29T12:16:03.252Z,8.21
2018-12-29T12:17:03.227Z,8.17
2018-12-29T12:18:03.205Z,8.14
2018-12-29T12:19:03.185Z,8.12
2018-12-29T12:20:03.159Z,8.13
2018-12-29T12:21:03.136Z,8.14
2018-12-29T12:22:03.115Z,8.09
2018-12-29T12:23:03.090Z,8.10
2018-12-29T12:24:03.066Z,8.12
2018-12-29T12:25:03.043Z,8.13
2018-12-29T12:26:03.020Z,8.20
2018-12-29T12:27:02.997Z,8.17
2018-12-29T12:28:02.975Z,8.17
2018-12-29T12:29:02.952Z,8.10
2018-12-29T12:30:02.928Z,8.12
2018-12-29T12:31:02.906Z,8.10
2018-12-29T12:32:02.883Z,8.13
2018-12-29T12:33:02.861Z,8.06
2018-12-29T12:34:02.836Z,8.06
2018-12-29T12:35:02.813Z,8.04
2018-12-29T12:36:02.791Z,8.05
2018-12-29T12:37:02.770Z,8.02
2018-12-29T12:38:02.744Z,8.04
2018-12-29T12:39:02.721Z,8.13
2018-12-29T12:40:02.699Z,8.12
2018-12-29T12:41:02.677Z,8.02
2018-12-29T12:42:02.653Z,8.02
2018-12-29T12:43:02.632Z,8.02
2018-12-29T12:44:02.605Z,8.02
2018-12-29T12:45:02.583Z,7.99
2018-12-29T12:46:02.562Z,7.99
2018-12-29T12:47:02.536Z,7.96
2018-12-29T12:48:05.409Z,8.01
2018-12-29T12:49:02.489Z,7.95
2018-12-29T12:50:02.466Z,7.98
2018-12-29T12:51:02.443Z,7.99
2018-12-29T12:52:02.419Z,7.98
2018-12-29T12:53:02.401Z,7.98
2018-12-29T12:54:02.378Z,7.99
2018-12-29T12:55:02.355Z,7.98
2018-12-29T12:56:02.327Z,8.04
2018-12-29T12:57:02.304Z,7.92
2018-12-29T12:58:02.281Z,7.94
2018-12-29T12:59:02.257Z,7.96
2018-12-29T13:00:02.234Z,7.96
2018-12-29T13:01:02.210Z,7.95
2018-12-29T13:02:02.187Z,7.94
2018-12-29T13:03:02.166Z,7.98
2018-12-29T13:04:02.143Z,7.94
2018-12-29T13:05:02.117Z,7.95
2018-12-29T13:06:02.094Z,7.94
2018-12-29T13:07:02.071Z,7.87
2018-12-29T13:08:02.048Z,7.91
2018-12-29T13:09:02.027Z,7.95
2018-12-29T13:10:02.000Z,7.88
2018-12-29T13:11:01.977Z,7.96
2018-12-29T13:12:01.953Z,7.94
2018-12-29T13:13:01.930Z,7.88
2018-12-29T13:14:01.907Z,7.87
2018-12-29T13:15:01.885Z,7.88
2018-12-29T13:16:01.860Z,7.94
2018-12-29T13:17:01.838Z,7.96
2018-12-29T13:18:01.812Z,8.02